Terminal Aerodrome Forecast
Issued by NWS Buffalo, NY

Home | Current Version | Previous Version | Text Only | Print | Product List | Glossary On
Versions: 1 2 3 4 5 6 7 8 9 10 11 12 13 14 15 16 17 18 19 20 21 22 23 24 25
000
FTUS41 KBUF 051736
TAFART
TAF
KART 051736Z 0518/0618 35005KT P6SM BKN250
     FM060000 VRB03KT P6SM BKN250
     FM060600 VRB03KT P6SM FEW250
     FM061700 26004KT P6SM FEW250=

USA.gov is the U.S. government's official web portal to all federal, state and local government web resources and services.